createdAt,value
2023-02-23T00:02:07.449Z,37.87
2023-02-23T00:04:35.330Z,36.00
2023-02-23T00:07:01.993Z,36.80
2023-02-23T00:09:35.351Z,36.67
2023-02-23T00:12:07.936Z,36.97
2023-02-23T00:14:37.927Z,36.63
2023-02-23T00:17:24.813Z,43.30
2023-02-23T00:19:55.719Z,51.77
2023-02-23T00:22:43.048Z,45.87
2023-02-23T00:25:15.145Z,51.83
2023-02-23T00:27:46.055Z,57.10
2023-02-23T00:30:14.459Z,53.30
2023-02-23T00:32:41.815Z,60.47
2023-02-23T00:35:17.263Z,57.70
2023-02-23T00:37:46.663Z,65.07
2023-02-23T00:40:16.657Z,62.00
2023-02-23T00:42:47.605Z,60.40
2023-02-23T00:45:15.065Z,60.30
2023-02-23T00:47:43.315Z,58.03
2023-02-23T00:50:13.105Z,57.30
2023-02-23T00:52:41.110Z,60.57
2023-02-23T00:55:09.839Z,54.33
2023-02-23T00:57:36.681Z,56.77
2023-02-23T01:00:19.665Z,55.70
2023-02-23T01:02:49.856Z,56.70
2023-02-23T01:05:16.965Z,51.03
2023-02-23T01:07:46.500Z,58.77
2023-02-23T01:10:19.930Z,59.40
2023-02-23T01:12:48.656Z,54.33
2023-02-23T01:15:16.342Z,62.73
2023-02-23T01:17:45.863Z,61.23
2023-02-23T01:20:16.059Z,63.13
2023-02-23T01:22:44.195Z,57.63
2023-02-23T01:25:12.452Z,66.23
2023-02-23T01:27:40.719Z,66.33
2023-02-23T01:30:09.352Z,62.90
2023-02-23T01:32:37.314Z,64.80
2023-02-23T01:35:09.640Z,71.53
2023-02-23T01:37:40.651Z,65.33
2023-02-23T01:40:16.655Z,78.03
2023-02-23T01:42:46.350Z,75.33
2023-02-23T01:45:24.629Z,73.47
2023-02-23T01:47:55.963Z,73.43
2023-02-23T01:50:26.525Z,77.50
2023-02-23T01:52:54.524Z,72.03
2023-02-23T01:55:24.613Z,81.40
2023-02-23T01:57:56.218Z,83.63
2023-02-23T02:00:26.220Z,81.73
2023-02-23T02:02:53.578Z,81.13
2023-02-23T02:05:21.311Z,78.23
2023-02-23T02:07:58.487Z,81.67
2023-02-23T02:10:39.774Z,81.40
2023-02-23T02:13:08.798Z,89.00
2023-02-23T02:15:53.833Z,90.60
2023-02-23T02:19:22.830Z,90.03
2023-02-23T02:21:49.501Z,89.43
2023-02-23T02:24:39.762Z,88.43
2023-02-23T02:27:29.664Z,81.33
2023-02-23T02:30:13.982Z,83.20
2023-02-23T02:33:11.174Z,84.20
2023-02-23T02:36:10.861Z,81.17
2023-02-23T02:38:59.291Z,75.17
2023-02-23T02:41:42.542Z,79.20
2023-02-23T02:44:20.231Z,77.07
2023-02-23T02:46:53.901Z,71.37
2023-02-23T02:49:32.088Z,72.37
2023-02-23T02:52:06.540Z,76.70
2023-02-23T02:54:43.688Z,75.40
2023-02-23T02:57:12.833Z,73.47
2023-02-23T03:00:07.236Z,74.77
2023-02-23T03:02:55.668Z,69.67
2023-02-23T03:05:49.452Z,76.67
2023-02-23T03:08:47.304Z,88.83
2023-02-23T03:11:33.445Z,78.87
2023-02-23T03:14:40.693Z,85.90
2023-02-23T03:17:51.200Z,77.03
2023-02-23T03:20:56.863Z,90.20
2023-02-23T03:24:04.168Z,82.50
2023-02-23T03:27:01.178Z,84.87
2023-02-23T03:30:03.133Z,82.63
2023-02-23T03:32:54.073Z,82.40
2023-02-23T03:35:51.289Z,79.63
2023-02-23T03:38:51.686Z,91.03
2023-02-23T03:41:40.557Z,86.00
2023-02-23T03:44:31.870Z,83.13
2023-02-23T03:47:19.508Z,89.37
2023-02-23T03:50:08.729Z,89.23
2023-02-23T03:53:02.982Z,95.90
2023-02-23T03:55:54.745Z,92.20
2023-02-23T03:58:52.453Z,91.13
2023-02-23T04:01:40.156Z,88.60
2023-02-23T04:04:28.246Z,90.97
2023-02-23T04:07:17.539Z,89.17
2023-02-23T04:10:03.393Z,89.00
2023-02-23T04:12:57.764Z,90.70
2023-02-23T04:15:35.986Z,88.40
2023-02-23T04:18:07.899Z,88.03
2023-02-23T04:20:34.611Z,88.67
2023-02-23T04:23:01.360Z,91.83
2023-02-23T04:25:29.966Z,88.53
2023-02-23T04:27:56.874Z,79.80
2023-02-23T04:30:25.736Z,88.13
2023-02-23T04:32:53.098Z,96.77
2023-02-23T04:35:20.559Z,92.10
2023-02-23T04:37:47.308Z,92.03
2023-02-23T04:40:14.414Z,90.00
2023-02-23T04:42:41.694Z,88.80
2023-02-23T04:45:09.312Z,91.03
2023-02-23T04:47:36.192Z,89.87
2023-02-23T04:50:03.931Z,93.77
2023-02-23T04:52:31.492Z,97.63
2023-02-23T04:54:58.251Z,95.20
2023-02-23T04:57:25.573Z,94.53
2023-02-23T04:59:52.432Z,94.03
2023-02-23T05:02:19.095Z,97.43
2023-02-23T05:04:45.887Z,88.40
2023-02-23T05:07:12.486Z,90.93
2023-02-23T05:09:41.034Z,96.53
2023-02-23T05:12:08.589Z,90.40
2023-02-23T05:14:35.263Z,99.83
2023-02-23T05:17:02.002Z,100.43
2023-02-23T05:19:28.943Z,97.60
2023-02-23T05:21:55.578Z,93.00
2023-02-23T05:24:22.568Z,103.63
2023-02-23T05:26:49.973Z,101.93
2023-02-23T05:29:16.714Z,103.07
2023-02-23T05:31:43.569Z,106.80
2023-02-23T05:34:10.610Z,111.33
2023-02-23T05:36:38.035Z,98.03
2023-02-23T05:39:04.782Z,95.93
2023-02-23T05:41:31.635Z,104.50
2023-02-23T05:43:58.304Z,93.30
2023-02-23T05:46:26.639Z,101.63
2023-02-23T05:48:59.221Z,97.97
2023-02-23T05:51:27.291Z,95.33
2023-02-23T05:53:54.599Z,92.20
2023-02-23T05:56:21.635Z,96.13
2023-02-23T05:58:53.903Z,94.03
2023-02-23T06:01:21.740Z,106.27
2023-02-23T06:03:49.640Z,99.80
2023-02-23T06:06:17.291Z,108.90
2023-02-23T06:08:44.639Z,118.20
2023-02-23T06:11:12.300Z,111.67
2023-02-23T06:13:39.081Z,110.77
2023-02-23T06:16:06.500Z,110.77
2023-02-23T06:18:33.269Z,126.27
2023-02-23T06:21:01.431Z,124.53
2023-02-23T06:23:28.760Z,128.03
2023-02-23T06:25:55.546Z,136.50
2023-02-23T06:28:23.505Z,125.03
2023-02-23T06:30:54.016Z,129.30
2023-02-23T06:33:21.486Z,123.03
2023-02-23T06:35:48.359Z,133.33
2023-02-23T06:38:15.596Z,136.47
2023-02-23T06:40:43.275Z,127.97
2023-02-23T06:43:10.349Z,137.57
2023-02-23T06:45:37.043Z,120.37
2023-02-23T06:48:04.031Z,138.23
2023-02-23T06:50:30.795Z,138.40
2023-02-23T06:52:57.752Z,125.20
2023-02-23T06:55:24.899Z,136.83
2023-02-23T06:57:54.405Z,146.27
2023-02-23T07:00:21.773Z,164.50
2023-02-23T07:02:48.835Z,147.70
2023-02-23T07:05:15.974Z,164.67
2023-02-23T07:07:42.633Z,160.67
2023-02-23T07:10:10.119Z,163.27
2023-02-23T07:12:36.911Z,146.83
2023-02-23T07:15:04.054Z,157.83
2023-02-23T07:17:30.747Z,181.80
2023-02-23T07:19:57.585Z,173.33
2023-02-23T07:22:25.423Z,168.93
2023-02-23T07:24:52.043Z,171.37
2023-02-23T07:27:18.825Z,166.07
2023-02-23T07:29:45.563Z,171.77
2023-02-23T07:32:12.425Z,170.97
2023-02-23T07:34:39.887Z,186.17
2023-02-23T07:37:06.674Z,196.13
2023-02-23T07:39:33.389Z,169.43
2023-02-23T07:42:00.334Z,164.03
2023-02-23T07:44:27.325Z,173.43
2023-02-23T07:46:54.048Z,167.30
2023-02-23T07:49:22.815Z,156.37
2023-02-23T07:51:49.587Z,171.20
2023-02-23T07:54:16.796Z,171.23
2023-02-23T07:56:43.556Z,163.67
2023-02-23T07:59:10.264Z,168.37
2023-02-23T08:01:37.082Z,154.50
2023-02-23T08:04:03.832Z,181.70
2023-02-23T08:06:31.441Z,168.50
2023-02-23T08:09:03.358Z,169.70
2023-02-23T08:11:30.601Z,173.03
2023-02-23T08:14:01.036Z,161.20
2023-02-23T08:16:29.673Z,155.53
2023-02-23T08:18:58.472Z,166.90
2023-02-23T08:21:49.698Z,155.77
2023-02-23T08:24:17.553Z,156.70
2023-02-23T08:26:44.427Z,160.43
2023-02-23T08:29:11.273Z,164.63
2023-02-23T08:31:38.177Z,157.17
2023-02-23T08:34:05.030Z,156.73
2023-02-23T08:36:31.725Z,156.47
2023-02-23T08:38:58.378Z,142.50
2023-02-23T08:41:27.783Z,152.27
2023-02-23T08:43:54.526Z,149.20
2023-02-23T08:46:22.354Z,160.03
2023-02-23T08:48:49.118Z,174.37
2023-02-23T08:51:16.186Z,150.90
2023-02-23T08:53:42.947Z,156.27
2023-02-23T08:56:11.898Z,150.37
2023-02-23T08:58:39.226Z,139.13
2023-02-23T09:01:06.056Z,149.97
2023-02-23T09:03:38.326Z,139.40
2023-02-23T09:06:10.516Z,140.67
2023-02-23T09:08:37.725Z,137.40
2023-02-23T09:11:04.734Z,122.40
2023-02-23T09:13:32.018Z,133.47
2023-02-23T09:15:58.875Z,144.13
2023-02-23T09:18:27.929Z,132.13
2023-02-23T09:20:54.647Z,117.57
2023-02-23T09:23:22.057Z,116.97
2023-02-23T09:25:48.918Z,120.77
2023-02-23T09:28:17.904Z,115.03
2023-02-23T09:30:46.303Z,117.93
2023-02-23T09:33:13.487Z,107.97
2023-02-23T09:35:41.443Z,111.37
2023-02-23T09:38:09.260Z,116.73
2023-02-23T09:40:49.820Z,108.33
2023-02-23T09:43:28.188Z,112.90
2023-02-23T09:46:09.306Z,110.33
2023-02-23T09:48:36.007Z,98.93
2023-02-23T09:51:08.758Z,106.30
2023-02-23T09:53:48.121Z,108.03
2023-02-23T09:56:33.380Z,106.13
2023-02-23T09:59:01.731Z,108.73
2023-02-23T10:01:47.178Z,104.90
2023-02-23T10:04:29.680Z,120.77
2023-02-23T10:07:03.100Z,113.10
2023-02-23T10:09:38.806Z,124.50
2023-02-23T10:12:19.855Z,129.00
2023-02-23T10:15:24.636Z,114.90
2023-02-23T10:18:16.294Z,107.27
2023-02-23T10:20:58.017Z,102.53
2023-02-23T10:23:34.338Z,105.87
2023-02-23T10:26:02.584Z,114.67
2023-02-23T10:28:34.788Z,109.37
2023-02-23T10:31:07.710Z,116.87
2023-02-23T10:33:38.375Z,116.83
2023-02-23T10:36:22.392Z,121.20
2023-02-23T10:38:49.228Z,117.60
2023-02-23T10:41:15.909Z,112.83
2023-02-23T10:43:42.791Z,118.30
2023-02-23T10:46:17.806Z,136.53
2023-02-23T10:48:45.279Z,144.97
2023-02-23T10:51:22.440Z,146.50
2023-02-23T10:53:49.308Z,141.00
2023-02-23T10:56:18.825Z,133.33
2023-02-23T10:58:47.498Z,139.00
2023-02-23T11:01:16.864Z,146.27
2023-02-23T11:04:05.397Z,137.60
2023-02-23T11:06:36.495Z,145.40
2023-02-23T11:09:45.576Z,150.43
2023-02-23T11:12:24.269Z,149.93
2023-02-23T11:14:54.668Z,135.30
2023-02-23T11:17:27.958Z,138.10
2023-02-23T11:20:26.073Z,155.43
2023-02-23T11:22:52.851Z,147.57
2023-02-23T11:25:28.990Z,141.40
2023-02-23T11:27:57.350Z,145.07
2023-02-23T11:30:29.576Z,135.63
2023-02-23T11:32:59.630Z,142.93
2023-02-23T11:35:30.235Z,150.37
2023-02-23T11:37:57.230Z,132.73
2023-02-23T11:40:32.744Z,141.33
2023-02-23T11:43:05.451Z,133.43
2023-02-23T11:45:53.838Z,132.07
2023-02-23T11:48:28.581Z,138.60
2023-02-23T11:50:56.623Z,139.77
2023-02-23T11:53:36.815Z,129.13
2023-02-23T11:56:11.242Z,116.47
2023-02-23T11:58:49.608Z,114.30
2023-02-23T12:01:23.554Z,118.60
2023-02-23T12:03:57.021Z,101.70
2023-02-23T12:06:35.019Z,98.97
2023-02-23T12:09:30.374Z,103.37
2023-02-23T12:12:03.443Z,97.20
2023-02-23T12:14:51.597Z,99.10
2023-02-23T12:17:34.567Z,97.93
2023-02-23T12:20:04.370Z,99.57
2023-02-23T12:22:40.494Z,93.97
2023-02-23T12:25:40.708Z,91.77
2023-02-23T12:28:36.903Z,89.70
2023-02-23T12:31:15.263Z,90.77
2023-02-23T12:33:48.627Z,88.10
2023-02-23T12:37:00.717Z,89.60
2023-02-23T12:39:43.473Z,79.43
2023-02-23T12:42:22.577Z,87.20
2023-02-23T12:45:03.916Z,83.30
2023-02-23T12:47:54.498Z,75.70
2023-02-23T12:50:53.156Z,82.53
2023-02-23T12:53:37.592Z,86.70
2023-02-23T12:56:04.418Z,82.43
2023-02-23T12:58:33.923Z,84.70
2023-02-23T13:01:09.523Z,76.03
2023-02-23T13:03:43.254Z,87.33
2023-02-23T13:06:35.448Z,76.00
2023-02-23T13:09:02.537Z,79.47
2023-02-23T13:11:41.317Z,69.47
2023-02-23T13:14:17.383Z,75.20
2023-02-23T13:16:55.564Z,61.37
2023-02-23T13:19:50.569Z,63.93
2023-02-23T13:22:28.264Z,64.73
2023-02-23T13:25:00.313Z,64.90
2023-02-23T13:27:37.160Z,59.60
2023-02-23T13:30:05.003Z,63.13
2023-02-23T13:32:34.715Z,56.20
2023-02-23T13:35:17.937Z,61.43
2023-02-23T13:38:03.371Z,52.43
2023-02-23T13:40:38.932Z,55.97
2023-02-23T13:43:36.501Z,52.80
2023-02-23T13:46:22.039Z,52.77
2023-02-23T13:49:02.178Z,56.03
2023-02-23T13:51:35.300Z,50.97
2023-02-23T13:54:12.714Z,50.60
2023-02-23T13:56:47.424Z,48.50
2023-02-23T13:59:29.742Z,46.63
2023-02-23T14:01:57.022Z,54.50
2023-02-23T14:04:28.265Z,55.23
2023-02-23T14:06:56.568Z,53.57
2023-02-23T14:09:45.366Z,56.10
2023-02-23T14:12:26.681Z,55.97
2023-02-23T14:14:53.503Z,57.20
2023-02-23T14:17:20.202Z,60.80
2023-02-23T14:20:17.770Z,58.47
2023-02-23T14:23:17.232Z,60.20
2023-02-23T14:25:46.862Z,57.53
2023-02-23T14:28:27.703Z,61.10
2023-02-23T14:31:03.547Z,59.97
2023-02-23T14:34:00.308Z,58.50
2023-02-23T14:36:29.586Z,57.10
2023-02-23T14:38:56.245Z,60.50
2023-02-23T14:41:50.324Z,66.63
2023-02-23T14:44:30.032Z,63.80
2023-02-23T14:47:12.054Z,61.33
2023-02-23T14:50:01.554Z,61.13
2023-02-23T14:52:41.420Z,62.23
2023-02-23T14:55:11.112Z,64.23
2023-02-23T14:57:40.443Z,58.80
2023-02-23T15:00:15.187Z,64.63
2023-02-23T15:02:57.483Z,58.60
2023-02-23T15:05:27.710Z,65.40
2023-02-23T15:08:00.182Z,59.47
2023-02-23T15:10:36.832Z,59.87
2023-02-23T15:13:16.426Z,55.87
2023-02-23T15:15:45.567Z,56.47
2023-02-23T15:18:22.322Z,51.50
2023-02-23T15:20:49.959Z,49.43
2023-02-23T15:23:19.322Z,46.77
2023-02-23T15:25:48.334Z,51.80
2023-02-23T15:28:29.606Z,47.20
2023-02-23T15:31:01.394Z,60.67
2023-02-23T15:33:31.059Z,51.27
2023-02-23T15:36:06.876Z,52.23
2023-02-23T15:38:43.961Z,57.93
2023-02-23T15:41:39.486Z,52.77
2023-02-23T15:44:29.756Z,55.47
2023-02-23T15:47:10.960Z,55.77
2023-02-23T15:49:42.091Z,57.47
2023-02-23T15:52:22.239Z,60.80
2023-02-23T15:55:00.054Z,57.77
2023-02-23T15:57:31.302Z,48.77
2023-02-23T16:00:00.853Z,60.00
2023-02-23T16:02:30.067Z,54.43
2023-02-23T16:04:57.708Z,57.13
2023-02-23T16:07:27.276Z,51.57
2023-02-23T16:09:56.434Z,51.40
2023-02-23T16:12:29.212Z,55.47
2023-02-23T16:15:00.359Z,53.00
2023-02-23T16:17:42.833Z,52.03
2023-02-23T16:20:22.041Z,46.43
2023-02-23T16:22:53.633Z,47.50
2023-02-23T16:25:21.963Z,50.00
2023-02-23T16:27:56.360Z,48.90
2023-02-23T16:30:50.213Z,48.13
2023-02-23T16:33:23.197Z,48.73
2023-02-23T16:36:14.868Z,46.63
2023-02-23T16:39:02.545Z,43.50
2023-02-23T16:41:33.096Z,50.60
2023-02-23T16:44:08.233Z,48.23
2023-02-23T16:47:04.767Z,46.07
2023-02-23T16:49:31.488Z,52.73
2023-02-23T16:51:59.535Z,66.13
2023-02-23T16:54:26.786Z,61.80
2023-02-23T16:56:55.501Z,81.00
2023-02-23T16:59:23.434Z,73.77
2023-02-23T17:01:50.900Z,73.00
2023-02-23T17:04:19.550Z,84.60
2023-02-23T17:06:52.869Z,82.43
2023-02-23T17:09:20.428Z,84.33
2023-02-23T17:11:47.484Z,85.77
2023-02-23T17:14:25.273Z,89.57
2023-02-23T17:16:52.092Z,100.03
2023-02-23T17:19:19.488Z,88.50
2023-02-23T17:21:46.763Z,101.63
2023-02-23T17:24:13.425Z,111.13
2023-02-23T17:26:42.131Z,116.17
2023-02-23T17:29:09.413Z,120.50
2023-02-23T17:31:38.608Z,119.17
2023-02-23T17:34:06.448Z,108.83
2023-02-23T17:36:33.125Z,104.63
2023-02-23T17:38:59.913Z,123.27
2023-02-23T17:41:27.353Z,114.77
2023-02-23T17:43:54.412Z,112.47
2023-02-23T17:46:21.526Z,105.93
2023-02-23T17:48:48.276Z,97.30
2023-02-23T17:51:21.517Z,113.43
2023-02-23T17:53:48.407Z,96.67
2023-02-23T17:56:16.398Z,114.63
2023-02-23T17:58:43.364Z,90.97
2023-02-23T18:01:10.169Z,117.43
2023-02-23T18:03:37.665Z,114.87
2023-02-23T18:06:10.941Z,104.53
2023-02-23T18:08:40.208Z,100.90
2023-02-23T18:11:07.071Z,101.97
2023-02-23T18:13:33.945Z,93.40
2023-02-23T18:16:04.398Z,110.73
2023-02-23T18:18:31.303Z,99.90
2023-02-23T18:21:00.475Z,98.13
2023-02-23T18:23:30.609Z,102.03
2023-02-23T18:26:05.397Z,114.43
2023-02-23T18:28:32.204Z,106.93
2023-02-23T18:30:59.018Z,93.67
2023-02-23T18:33:25.875Z,103.73
2023-02-23T18:35:52.548Z,119.27
2023-02-23T18:38:19.339Z,40.20
2023-02-23T18:40:46.077Z,30.53
2023-02-23T18:43:13.549Z,27.80
2023-02-23T18:45:40.313Z,33.07
2023-02-23T18:48:10.860Z,27.60
2023-02-23T18:50:37.589Z,33.80
2023-02-23T18:53:05.586Z,35.77
2023-02-23T18:55:32.497Z,34.13
2023-02-23T18:57:59.267Z,32.43
2023-02-23T19:00:26.129Z,41.30
2023-02-23T19:02:54.103Z,33.50
2023-02-23T19:05:22.263Z,39.50
2023-02-23T19:07:49.214Z,35.57
2023-02-23T19:10:16.718Z,33.10
2023-02-23T19:12:43.963Z,33.27
2023-02-23T19:15:11.253Z,38.43
2023-02-23T19:17:38.258Z,36.57
2023-02-23T19:20:13.804Z,42.70
2023-02-23T19:22:41.989Z,36.67
2023-02-23T19:25:11.990Z,34.80
2023-02-23T19:27:39.061Z,38.07
2023-02-23T19:30:09.927Z,39.63
2023-02-23T19:32:39.780Z,29.40
2023-02-23T19:35:10.756Z,28.67
2023-02-23T19:37:42.428Z,32.90
2023-02-23T19:40:09.924Z,27.77
2023-02-23T19:42:37.014Z,23.40
2023-02-23T19:45:04.481Z,22.10
2023-02-23T19:47:31.172Z,23.40
2023-02-23T19:49:57.950Z,27.27
2023-02-23T19:52:24.824Z,31.27
2023-02-23T19:54:51.679Z,29.30
2023-02-23T19:57:20.648Z,17.87
2023-02-23T19:59:47.407Z,27.93
2023-02-23T20:02:14.039Z,27.77
2023-02-23T20:04:40.787Z,25.87
2023-02-23T20:07:09.957Z,22.60
2023-02-23T20:09:36.636Z,23.43
2023-02-23T20:12:03.474Z,30.83
2023-02-23T20:14:30.278Z,23.80
2023-02-23T20:16:57.041Z,30.37
2023-02-23T20:19:24.422Z,31.27
2023-02-23T20:21:51.273Z,25.83
2023-02-23T20:24:18.652Z,25.97
2023-02-23T20:26:46.200Z,22.43
2023-02-23T20:29:18.127Z,24.83
2023-02-23T20:31:51.177Z,23.73
2023-02-23T20:34:24.048Z,25.30
2023-02-23T20:36:51.328Z,26.47
2023-02-23T20:39:19.243Z,23.90
2023-02-23T20:41:47.968Z,29.77
2023-02-23T20:44:16.244Z,33.67
2023-02-23T20:46:44.710Z,26.77
2023-02-23T20:49:16.721Z,21.53
2023-02-23T20:51:45.874Z,24.83
2023-02-23T20:54:14.022Z,25.70
2023-02-23T20:56:41.771Z,22.80
2023-02-23T20:59:11.415Z,25.93
2023-02-23T21:01:41.002Z,20.53
2023-02-23T21:04:08.490Z,20.93
2023-02-23T21:06:35.563Z,20.50
2023-02-23T21:09:07.300Z,21.20
2023-02-23T21:11:34.188Z,24.17
2023-02-23T21:14:00.954Z,20.17
2023-02-23T21:16:32.350Z,22.23
2023-02-23T21:19:05.079Z,26.47
2023-02-23T21:21:38.976Z,28.73
2023-02-23T21:24:06.282Z,23.13
2023-02-23T21:26:33.153Z,28.47
2023-02-23T21:29:00.222Z,21.17
2023-02-23T21:31:27.010Z,28.53
2023-02-23T21:33:54.012Z,20.27
2023-02-23T21:36:20.869Z,22.83
2023-02-23T21:38:47.818Z,23.80
2023-02-23T21:41:15.976Z,21.27
2023-02-23T21:43:44.814Z,22.83
2023-02-23T21:46:15.189Z,21.80
2023-02-23T21:48:44.036Z,25.33
2023-02-23T21:51:13.324Z,22.60
2023-02-23T21:53:41.177Z,22.67
2023-02-23T21:56:14.603Z,29.90
2023-02-23T21:58:47.687Z,17.70
2023-02-23T22:01:29.968Z,21.87
2023-02-23T22:03:57.914Z,28.17
2023-02-23T22:06:27.387Z,18.30
2023-02-23T22:08:54.255Z,20.20
2023-02-23T22:11:26.554Z,25.20
2023-02-23T22:13:59.392Z,22.10
2023-02-23T22:16:39.304Z,20.43
2023-02-23T22:19:07.159Z,22.47
2023-02-23T22:21:39.519Z,17.70
2023-02-23T22:24:07.597Z,21.07
2023-02-23T22:26:37.505Z,19.20
2023-02-23T22:29:09.856Z,23.17
2023-02-23T22:31:39.892Z,20.93
2023-02-23T22:34:07.924Z,21.83
2023-02-23T22:36:35.245Z,15.33
2023-02-23T22:39:02.855Z,21.13
2023-02-23T22:41:29.818Z,19.00
2023-02-23T22:43:57.794Z,16.93
2023-02-23T22:46:25.992Z,18.20
2023-02-23T22:48:52.754Z,21.17
2023-02-23T22:51:20.399Z,30.10
2023-02-23T22:53:47.496Z,23.13
2023-02-23T22:56:14.297Z,17.50
2023-02-23T22:58:42.395Z,19.90
2023-02-23T23:01:11.276Z,17.27
2023-02-23T23:03:45.954Z,23.83
2023-02-23T23:06:21.972Z,23.40
2023-02-23T23:08:53.654Z,19.90
2023-02-23T23:11:23.308Z,18.60
2023-02-23T23:14:02.159Z,18.63
2023-02-23T23:16:32.496Z,21.23
2023-02-23T23:19:02.952Z,17.87
2023-02-23T23:21:31.968Z,20.40
2023-02-23T23:24:01.211Z,25.00
2023-02-23T23:26:29.161Z,23.23
2023-02-23T23:28:59.043Z,21.30
2023-02-23T23:31:29.343Z,21.50
2023-02-23T23:34:01.825Z,17.67
2023-02-23T23:36:34.289Z,24.97
2023-02-23T23:39:03.723Z,20.60
2023-02-23T23:41:35.476Z,22.87
2023-02-23T23:44:05.350Z,20.10
2023-02-23T23:46:37.976Z,13.83
2023-02-23T23:49:08.408Z,17.87
2023-02-23T23:51:44.847Z,20.20
2023-02-23T23:54:18.216Z,18.57
2023-02-23T23:56:44.964Z,15.63
2023-02-23T23:59:17.449Z,22.33
